createdAt,value
2022-09-18T00:02:10.727Z,2.00
2022-09-18T00:07:03.080Z,0.93
2022-09-18T00:11:56.543Z,1.87
2022-09-18T00:16:49.445Z,2.40
2022-09-18T00:21:43.785Z,1.10
2022-09-18T00:26:35.926Z,0.43
2022-09-18T00:31:34.901Z,3.53
2022-09-18T00:36:28.257Z,3.73
2022-09-18T00:41:24.381Z,2.73
2022-09-18T00:46:32.739Z,1.90
2022-09-18T00:51:25.939Z,1.67
2022-09-18T00:56:18.278Z,4.27
2022-09-18T01:01:11.443Z,1.60
2022-09-18T01:06:14.156Z,6.17
2022-09-18T01:11:21.772Z,3.00
2022-09-18T01:16:32.111Z,3.20
2022-09-18T01:21:47.966Z,4.30
2022-09-18T01:26:57.795Z,2.77
2022-09-18T01:31:57.219Z,3.80
2022-09-18T01:36:55.979Z,5.00
2022-09-18T01:41:51.485Z,3.07
2022-09-18T01:46:47.041Z,1.10
2022-09-18T01:51:56.343Z,4.43
2022-09-18T01:57:04.093Z,2.73
2022-09-18T02:01:59.579Z,0.97
2022-09-18T02:07:14.589Z,1.00
2022-09-18T02:12:11.253Z,3.03
2022-09-18T02:17:12.717Z,4.77
2022-09-18T02:22:10.762Z,3.33
2022-09-18T02:27:06.891Z,3.37
2022-09-18T02:32:00.174Z,2.90
2022-09-18T02:37:03.317Z,2.03
2022-09-18T02:42:24.670Z,2.47
2022-09-18T02:47:39.301Z,1.67
2022-09-18T02:52:54.835Z,1.23
2022-09-18T02:58:00.811Z,3.10
2022-09-18T03:02:56.787Z,1.20
2022-09-18T03:07:57.992Z,6.80
2022-09-18T03:12:52.048Z,7.03
2022-09-18T03:17:44.276Z,7.07
2022-09-18T03:22:36.929Z,8.90
2022-09-18T03:27:29.078Z,12.57
2022-09-18T03:32:21.404Z,7.17
2022-09-18T03:37:17.274Z,5.30
2022-09-18T03:42:10.594Z,7.67
2022-09-18T03:47:02.664Z,4.33
2022-09-18T03:51:55.841Z,7.80
2022-09-18T03:56:49.083Z,8.13
2022-09-18T04:02:19.217Z,7.57
2022-09-18T04:07:37.380Z,7.20
2022-09-18T04:13:01.753Z,4.90
2022-09-18T04:17:58.847Z,6.60
2022-09-18T04:22:54.184Z,6.70
2022-09-18T04:27:46.207Z,3.70
2022-09-18T04:32:39.155Z,9.60
2022-09-18T04:37:31.333Z,7.83
2022-09-18T04:42:25.561Z,8.87
2022-09-18T04:47:17.999Z,6.33
2022-09-18T04:52:11.094Z,12.17
2022-09-18T04:57:03.234Z,7.40
2022-09-18T05:01:55.359Z,7.43
2022-09-18T05:06:48.110Z,4.97
2022-09-18T05:11:42.255Z,6.43
2022-09-18T05:16:34.846Z,7.10
2022-09-18T05:21:51.221Z,8.03
2022-09-18T05:26:45.534Z,8.93
2022-09-18T05:31:37.813Z,9.17
2022-09-18T05:36:29.999Z,5.07
2022-09-18T05:41:22.332Z,7.77
2022-09-18T05:46:15.096Z,9.93
2022-09-18T05:51:14.601Z,6.13
2022-09-18T05:56:07.040Z,5.57
2022-09-18T06:01:01.696Z,7.83
2022-09-18T06:06:09.518Z,9.40
2022-09-18T06:11:02.717Z,5.80
2022-09-18T06:15:57.582Z,6.13
2022-09-18T06:21:01.326Z,5.07
2022-09-18T06:26:05.034Z,5.73
2022-09-18T06:30:59.161Z,6.13
2022-09-18T06:35:51.952Z,9.20
2022-09-18T06:40:55.058Z,6.50
2022-09-18T06:46:12.484Z,5.77
2022-09-18T06:51:09.852Z,6.07
2022-09-18T06:56:21.981Z,4.70
2022-09-18T07:01:14.203Z,7.57
2022-09-18T07:06:11.232Z,7.90
2022-09-18T07:11:12.476Z,5.00
2022-09-18T07:16:04.813Z,6.23
2022-09-18T07:20:59.795Z,6.97
2022-09-18T07:26:01.512Z,5.47
2022-09-18T07:30:53.553Z,4.50
2022-09-18T07:35:45.864Z,4.33
2022-09-18T07:40:43.421Z,5.13
2022-09-18T07:45:39.632Z,4.13
2022-09-18T07:50:34.218Z,2.27
2022-09-18T07:55:28.077Z,6.63
2022-09-18T08:00:22.111Z,4.90
2022-09-18T08:05:16.623Z,4.47
2022-09-18T08:10:17.458Z,2.83
2022-09-18T08:15:33.361Z,2.63
2022-09-18T08:20:38.411Z,5.60
2022-09-18T08:25:44.581Z,5.13
2022-09-18T08:36:33.836Z,3.77
2022-09-18T08:41:47.034Z,6.37
2022-09-18T08:47:00.906Z,2.70
2022-09-18T08:52:03.850Z,6.00
2022-09-18T08:56:57.932Z,3.93
2022-09-18T09:02:25.160Z,9.10
2022-09-18T09:07:28.976Z,4.13
2022-09-18T09:12:42.791Z,4.60
2022-09-18T09:17:53.048Z,3.97
2022-09-18T09:23:02.564Z,7.30
2022-09-18T09:28:16.663Z,4.90
2022-09-18T09:33:44.446Z,4.23
2022-09-18T09:39:24.663Z,3.10
2022-09-18T09:44:22.528Z,3.83
2022-09-18T09:49:23.306Z,4.67
2022-09-18T09:54:15.634Z,5.87
2022-09-18T09:59:22.796Z,5.23
2022-09-18T10:05:08.062Z,6.17
2022-09-18T10:10:56.856Z,3.50
2022-09-18T10:17:03.264Z,3.87
2022-09-18T10:23:10.021Z,4.93
2022-09-18T10:29:16.536Z,3.40
2022-09-18T10:35:23.031Z,4.05
2022-09-18T10:41:28.910Z,3.22
2022-09-18T10:47:36.119Z,2.13
2022-09-18T10:53:42.977Z,9.15
2022-09-18T10:59:50.387Z,2.03
2022-09-18T11:05:57.713Z,3.90
2022-09-18T11:12:05.180Z,1.20
2022-09-18T11:18:12.035Z,2.60
2022-09-18T11:24:19.302Z,3.03
2022-09-18T11:30:26.107Z,5.10
2022-09-18T11:36:33.007Z,2.70
2022-09-18T11:42:39.947Z,2.03
2022-09-18T11:48:46.601Z,2.27
2022-09-18T11:54:53.354Z,3.67
2022-09-18T12:01:04.929Z,3.00
2022-09-18T12:06:41.611Z,2.43
2022-09-18T12:11:48.531Z,2.00
2022-09-18T12:16:51.121Z,2.40
2022-09-18T12:22:02.316Z,3.67
2022-09-18T12:27:05.181Z,0.67
2022-09-18T12:32:42.635Z,2.00
2022-09-18T12:37:47.492Z,7.70
2022-09-18T12:42:58.387Z,4.43
2022-09-18T12:48:14.184Z,1.03
2022-09-18T12:53:21.708Z,1.80
2022-09-18T12:58:35.143Z,1.37
2022-09-18T13:03:36.464Z,4.07
2022-09-18T13:08:50.522Z,3.30
2022-09-18T13:14:08.966Z,1.50
2022-09-18T13:19:19.810Z,2.17
2022-09-18T13:24:15.850Z,3.50
2022-09-18T13:29:45.245Z,3.43
2022-09-18T13:34:52.706Z,3.07
2022-09-18T13:40:09.801Z,2.40
2022-09-18T13:45:18.579Z,2.27
2022-09-18T13:50:18.669Z,1.47
2022-09-18T13:55:13.480Z,3.13
2022-09-18T14:00:20.877Z,2.10
2022-09-18T14:05:31.521Z,2.17
2022-09-18T14:10:28.238Z,0.90
2022-09-18T14:15:25.817Z,1.40
2022-09-18T14:20:21.042Z,3.47
2022-09-18T14:25:14.838Z,2.27
2022-09-18T14:30:22.950Z,1.80
2022-09-18T14:35:23.604Z,4.23
2022-09-18T14:40:22.603Z,1.53
2022-09-18T14:45:14.725Z,1.37
2022-09-18T14:50:25.414Z,0.67
2022-09-18T14:55:42.144Z,0.30
2022-09-18T15:00:36.991Z,1.10
2022-09-18T15:05:29.604Z,0.63
2022-09-18T15:10:23.360Z,2.30
2022-09-18T15:15:27.672Z,6.77
2022-09-18T15:20:20.703Z,3.63
2022-09-18T15:25:17.582Z,3.53
2022-09-18T15:30:18.918Z,3.03
2022-09-18T15:35:22.348Z,0.77
2022-09-18T15:40:20.854Z,0.40
2022-09-18T15:45:19.530Z,0.60
2022-09-18T15:50:17.897Z,2.30
2022-09-18T15:55:20.196Z,1.30
2022-09-18T16:00:37.504Z,1.00
2022-09-18T16:05:34.203Z,2.20
2022-09-18T16:10:35.529Z,1.90
2022-09-18T16:15:27.790Z,0.77
2022-09-18T16:20:33.670Z,0.80
2022-09-18T16:25:28.837Z,1.23
2022-09-18T16:30:20.885Z,2.20
2022-09-18T16:35:14.758Z,1.27
2022-09-18T16:40:16.575Z,0.77
2022-09-18T16:45:09.215Z,0.87
2022-09-18T16:50:01.583Z,0.90
2022-09-18T16:54:53.594Z,1.57
2022-09-18T16:59:46.000Z,1.23
2022-09-18T17:04:38.221Z,1.13
2022-09-18T17:09:30.763Z,0.60
2022-09-18T17:14:23.526Z,2.40
2022-09-18T17:19:15.730Z,3.43
2022-09-18T17:24:08.615Z,1.73
2022-09-18T17:29:00.804Z,1.03
2022-09-18T17:33:53.912Z,0.40
2022-09-18T17:38:47.522Z,1.10
2022-09-18T17:43:40.269Z,0.77
2022-09-18T17:48:32.819Z,0.60
2022-09-18T17:53:26.157Z,0.33
2022-09-18T17:58:18.503Z,1.53
2022-09-18T18:03:10.766Z,1.03
2022-09-18T18:08:03.439Z,0.93
2022-09-18T18:12:55.888Z,1.80
2022-09-18T18:17:49.431Z,1.63
2022-09-18T18:22:41.692Z,0.40
2022-09-18T18:27:33.875Z,0.40
2022-09-18T18:32:26.200Z,0.90
2022-09-18T18:37:19.766Z,0.50
2022-09-18T18:42:11.901Z,0.60
2022-09-18T18:47:04.895Z,0.30
2022-09-18T18:51:58.469Z,1.40
2022-09-18T18:56:51.973Z,0.77
2022-09-18T19:01:44.621Z,0.83
2022-09-18T19:06:39.058Z,0.43
2022-09-18T19:11:33.501Z,0.30
2022-09-18T19:16:45.936Z,0.87
2022-09-18T19:21:38.598Z,0.50
2022-09-18T19:26:31.350Z,0.83
2022-09-18T19:31:23.977Z,0.80
2022-09-18T19:36:16.112Z,0.40
2022-09-18T19:41:37.874Z,2.23
2022-09-18T19:46:32.048Z,0.40
2022-09-18T19:51:24.701Z,0.97
2022-09-18T19:56:39.317Z,7.97
2022-09-18T20:01:28.888Z,1.20
2022-09-18T20:06:22.919Z,1.70
2022-09-18T20:11:15.494Z,1.20
2022-09-18T20:16:10.287Z,1.30
2022-09-18T20:21:10.296Z,1.73
2022-09-18T20:26:10.396Z,1.33
2022-09-18T20:31:07.630Z,1.00
2022-09-18T20:36:00.451Z,1.40
2022-09-18T20:41:06.798Z,0.80
2022-09-18T20:46:01.924Z,1.10
2022-09-18T20:50:56.585Z,0.40
2022-09-18T20:55:49.643Z,1.23
2022-09-18T21:00:42.025Z,0.67
2022-09-18T21:05:39.602Z,0.50
2022-09-18T21:10:32.866Z,0.60
2022-09-18T21:15:25.440Z,0.53
2022-09-18T21:20:17.970Z,1.30
2022-09-18T21:25:10.149Z,1.40
2022-09-18T21:30:02.386Z,0.50
2022-09-18T21:34:55.203Z,0.50
2022-09-18T21:39:47.257Z,1.07
2022-09-18T21:44:39.722Z,0.73
2022-09-18T21:49:32.954Z,2.20
2022-09-18T21:54:25.768Z,0.40
2022-09-18T21:59:19.531Z,0.40
2022-09-18T22:04:12.188Z,0.97
2022-09-18T22:09:11.760Z,0.30
2022-09-18T22:14:08.891Z,0.30
2022-09-18T22:19:01.411Z,0.57
2022-09-18T22:23:56.296Z,0.73
2022-09-18T22:28:54.211Z,0.40
2022-09-18T22:33:47.405Z,0.50
2022-09-18T22:38:39.698Z,0.43
2022-09-18T22:43:31.992Z,2.30
2022-09-18T22:48:23.954Z,2.37
2022-09-18T22:53:16.654Z,1.70
2022-09-18T22:58:08.736Z,1.13
2022-09-18T23:03:01.137Z,1.40
2022-09-18T23:07:53.299Z,0.53
2022-09-18T23:12:48.131Z,1.07
2022-09-18T23:17:44.224Z,0.63
2022-09-18T23:22:36.525Z,1.87
2022-09-18T23:27:28.571Z,0.87
2022-09-18T23:32:20.636Z,1.97
2022-09-18T23:37:12.695Z,4.43
2022-09-18T23:42:05.974Z,1.00
2022-09-18T23:46:59.476Z,1.17
2022-09-18T23:51:53.775Z,1.70
2022-09-18T23:56:47.400Z,0.67
